AirNav   Pilot Hours Calculator
 
 1326 users online  

55FL The Murphy Company Heliport
West Palm Beach, Florida, USA

GOING TO WEST PALM BEACH?


FAA INFORMATION EFFECTIVE 05 DECEMBER 2019

Location

FAA Identifier: 55FL
Lat/Long: 26-41-14.2360N 080-03-26.1490W
26-41.237267N 080-03.435817W
26.6872878,-80.0572636
(estimated)
Elevation: 15 ft. / 5 m (estimated)
Variation: 03W (1985)
From city: 2 miles SW of WEST PALM BEACH, FL
Time zone: UTC -5 (UTC -4 during Daylight Saving Time)
Zip code: 33405

Heliport Operations

Heliport use: Private use. Permission required prior to landing
Activation date: 02/1982
Control tower: no
ARTCC: MIAMI CENTER
FSS: MIAMI FLIGHT SERVICE STATION
Attendance: UNATNDD
Wind indicator: yes
Segmented circle: yes

Heliport Communications

WX ASOS at PBI (2.1 nm W): 123.75 (561-683-2548)
WX AWOS-3PT at LNA (6 nm S): 119.925 (561-964-0308)
WX AWOS-3 at F45 (13 nm NW): 119.975 (561-630-6932)
WX AWOS-3 at BCT (19 nm S): 121.125 (561-391-2696)

Nearby radio navigation aids

VOR radial/distance  VOR name  Freq  Var
PBIr078/1.6PALM BEACH VORTAC115.7003W
PHKr100/34.5PAHOKEE VOR/DME115.4000E
FLLr015/37.3FORT LAUDERDALE VOR/DME114.4006W

 
NDB name  Hdg/Dist  Freq  Var  ID
UNITED137/20.040505WUTX ..- - -..-

Heliport Services

Runway Information

Helipad H1

Dimensions: 50 x 50 ft. / 15 x 15 m
DIMENSIONS & SFC CMPSN UNKNOWN.
Surface: concrete, in good condition
Latitude: 26-41.237267N
Longitude: 080-03.435817W
Elevation: 15.0 ft.
Traffic pattern: leftleft
Markings: none, in good condition

Heliport Ownership and Management from official FAA records

Ownership: Privately-owned
Owner: MARTIN E. MURPHY
1615 CLARE AVE
WEST PALM BEACH, FL 33401
Phone 561-655-3634
EXT 119
Manager: MARTIN E. MURPHY
1615 CLARE AVE
WEST PALM BEACH, FL 33401
Phone 561-655-3634
EXT 119

Heliport Operational Statistics

Aircraft based on the field: 1
Helicopters: 1
    

Additional Remarks

FOR CD CTC PALM BEACH APCH AT 561-275-1430

Instrument Procedures

There are no published instrument procedures at 55FL.

Some nearby airports with instrument procedures:

KPBI - Palm Beach International Airport (2 nm W)
KLNA - Palm Beach County Park Airport (6 nm S)
F45 - North Palm Beach County General Aviation Airport (13 nm NW)
KBCT - Boca Raton Airport (19 nm S)
06FA - William P Gwinn Airport (20 nm NW)
 
Loc | Ops | Rwys | IFR | FBO | Links
Com | Nav | Svcs | Stats | Notes


 
Area around 55FL (The Murphy Company Heliport)
 
Road maps at: MapQuest Bing Google
 
Aerial photo
No photo
 
Sectional chart

 
Airport distance calculator
Flying to The Murphy Company Heliport? Find the distance to fly.

From to 55FL

Sunrise and sunset
Times for 06-Dec-2019
 Local
(UTC-5)
 Zulu
(UTC)
Morning civil twilight06:3111:31
Sunrise06:5611:56
Sunset17:2622:26
Evening civil twilight17:5222:52

Current date and time
Zulu (UTC)  06-Dec-2019 15:08:52
Local (UTC-5)  06-Dec-2019 10:08:52
 
METAR
KPBI 
2nm W 
061453Z 00000KT 10SM SCT040 BKN250 23/14 A3020 RMK AO2 SLP226 T02280139 51012
KLNA 
6nm S 
061455Z AUTO 34003KT 10SM CLR 22/15 A3020 RMK AO2 6//// T02220153 PNO
KF45 
13nm NW 
061450Z AUTO 00000KT 10SM CLR 23/14 A3022 RMK AO2 TSNO
KBCT 
18nm S 
061447Z 35003KT 10SM CLR 23/15 A3019
TAF
KPBI 
2nm W 
061122Z 0612/0712 31005KT P6SM FEW250 FM061500 12008KT P6SM SCT250 FM070100 VRB03KT P6SM SCT250
NOTAMs
Click for the latest NOTAMs
NOTAMs are issued by the DoD/FAA and will open in a separate window not controlled by AirNav.

 

 
 

Would you like to see your business listed on this page?

 If your business provides an interesting product or service to pilots, flight crews, aircraft, or users of the The Murphy Company Heliport, you should consider listing it here.  To start the listing process, click on the button below
 
Add a business
 

Other Pages about The Murphy Company Heliport

Update a link
 
Copyright © AirNav, LLC. All rights reserved. Privacy Policy  Contact